Time;durP1;ratioP1;P1;durP2;ratioP2;P2;SDS_P1;SDS_P2;PMS_P1;PMS_P2;Temp;Humidity;BMP_temperature;BMP_pressure;BME280_temperature;BME280_humidity;BME280_pressure;Samples;Min_cycle;Max_cycle;Signal;HPM_P1;HPM_P2
2022/03/23 00:00:48;;;;;;;7.57;2.03;;;;;;;7.77;44.32;95732.91;5031058;28;20206;-61
2022/03/23 00:03:15;;;;;;;5.33;1.93;;;;;;;7.59;44.03;95734.75;5014262;28;20632;-61
2022/03/23 00:05:42;;;;;;;4.90;1.90;;;;;;;7.61;45.50;95720.31;5013999;28;20202;-61
2022/03/23 00:08:11;;;;;;;3.07;1.63;;;;;;;7.64;44.32;95731.06;5032198;28;20186;-63
2022/03/23 00:10:37;;;;;;;7.43;1.83;;;;;;;7.65;44.74;95721.78;5031607;28;20197;-60
2022/03/23 00:13:05;;;;;;;8.57;1.57;;;;;;;7.47;44.63;95710.16;5031479;28;20799;-65
2022/03/23 00:15:30;;;;;;;2.97;1.43;;;;;;;7.46;44.51;95711.03;5031774;28;20231;-60
2022/03/23 00:17:56;;;;;;;3.97;1.40;;;;;;;7.61;43.89;95703.38;5014213;28;20296;-60
2022/03/23 00:20:22;;;;;;;4.33;1.70;;;;;;;7.49;44.01;95703.28;5014000;28;20216;-61
2022/03/23 00:22:48;;;;;;;4.73;1.73;;;;;;;7.34;45.26;95704.13;5031635;28;20656;-60
2022/03/23 00:25:14;;;;;;;6.20;1.93;;;;;;;7.23;45.35;95694.59;5032005;28;20214;-64
2022/03/23 00:27:40;;;;;;;5.50;1.77;;;;;;;7.19;44.99;95689.81;5030044;28;20848;-60
2022/03/23 00:30:07;;;;;;;3.40;1.70;;;;;;;7.32;44.86;95698.34;5011539;28;20206;-61
2022/03/23 00:32:33;;;;;;;3.27;1.50;;;;;;;7.25;45.14;95689.47;5031446;28;20201;-64
2022/03/23 00:35:06;;;;;;;4.17;1.53;;;;;;;7.03;45.62;95679.69;5031631;28;20205;-65
2022/03/23 00:37:32;;;;;;;4.00;1.77;;;;;;;7.30;45.76;95690.00;5031350;28;20217;-62
2022/03/23 00:39:57;;;;;;;5.53;1.77;;;;;;;7.30;44.66;95695.06;5031162;28;20209;-65
2022/03/23 00:42:23;;;;;;;5.03;1.60;;;;;;;7.17;44.72;95691.59;5013694;28;20217;-61
2022/03/23 00:44:51;;;;;;;4.63;1.77;;;;;;;6.98;44.18;95688.44;5031711;28;20194;-62
2022/03/23 00:47:17;;;;;;;3.70;1.60;;;;;;;6.90;45.51;95662.75;5013632;28;20185;-62
2022/03/23 00:49:43;;;;;;;3.00;1.57;;;;;;;6.83;46.21;95664.00;5031639;28;20589;-61
2022/03/23 00:52:10;;;;;;;3.00;1.57;;;;;;;6.85;43.89;95687.47;5031289;28;20205;-63
2022/03/23 00:54:36;;;;;;;3.40;1.60;;;;;;;6.61;46.49;95649.97;5030562;28;20218;-59
2022/03/23 00:57:05;;;;;;;3.17;1.53;;;;;;;6.75;44.75;95680.38;5029115;28;20565;-60
2022/03/23 00:59:32;;;;;;;3.60;1.80;;;;;;;6.76;45.57;95673.63;5030515;28;20689;-61
2022/03/23 01:01:58;;;;;;;3.57;1.80;;;;;;;6.76;44.67;95684.53;5031518;28;20269;-61
2022/03/23 01:04:24;;;;;;;5.53;2.10;;;;;;;6.66;44.91;95678.34;5032126;28;20300;-63
2022/03/23 01:06:52;;;;;;;3.73;2.00;;;;;;;6.72;44.10;95698.25;5031067;28;20190;-61
2022/03/23 01:09:22;;;;;;;4.10;1.40;;;;;;;6.66;46.22;95673.31;5031206;28;20184;-60
2022/03/23 01:11:50;;;;;;;7.27;1.60;;;;;;;6.72;45.34;95687.31;5032404;28;20282;-61
2022/03/23 01:14:16;;;;;;;5.40;2.83;;;;;;;6.72;44.96;95679.72;5035229;28;20194;-63
2022/03/23 01:16:42;;;;;;;4.73;1.70;;;;;;;6.71;45.06;95681.44;5017370;28;20182;-62
2022/03/23 01:19:08;;;;;;;4.60;1.20;;;;;;;6.74;43.85;95698.16;5017672;28;20644;-64
2022/03/23 01:21:35;;;;;;;3.03;1.60;;;;;;;6.62;44.92;95669.31;5035055;28;20262;-61
2022/03/23 01:24:01;;;;;;;3.27;1.40;;;;;;;6.55;45.42;95673.03;5035002;28;20197;-63
2022/03/23 01:26:26;;;;;;;2.97;1.50;;;;;;;6.83;45.27;95679.97;5034450;28;20688;-62
2022/03/23 01:28:52;;;;;;;5.70;2.00;;;;;;;6.85;43.87;95690.78;5032720;28;20274;-61
2022/03/23 01:31:17;;;;;;;4.13;1.53;;;;;;;6.75;44.01;95693.00;5034386;28;20215;-64
2022/03/23 01:33:43;;;;;;;6.83;1.43;;;;;;;6.70;44.59;95684.88;5034830;28;20187;-59
2022/03/23 01:36:10;;;;;;;4.53;2.07;;;;;;;6.83;44.25;95686.75;5035900;28;20202;-64
2022/03/23 01:38:35;;;;;;;3.03;1.67;;;;;;;6.81;44.21;95675.91;5017027;28;20554;-64
2022/03/23 01:41:01;;;;;;;9.10;1.80;;;;;;;6.69;43.86;95693.34;5016846;28;20205;-60
2022/03/23 01:43:26;;;;;;;3.03;1.70;;;;;;;6.68;43.76;95676.56;5016812;28;20189;-61
2022/03/23 01:45:53;;;;;;;7.43;2.20;;;;;;;6.67;44.36;95681.66;5034237;28;20197;-61
2022/03/23 01:48:18;;;;;;;3.80;1.53;;;;;;;6.51;44.63;95676.63;5016529;28;20193;-64
2022/03/23 01:50:44;;;;;;;4.97;1.73;;;;;;;6.58;43.42;95690.56;4995678;23;20295;-61
2022/03/23 01:53:09;;;;;;;3.47;1.47;;;;;;;6.34;45.25;95665.78;5014403;28;20663;-64
2022/03/23 01:55:35;;;;;;;5.17;1.80;;;;;;;6.56;44.87;95674.69;5014084;28;20210;-64
2022/03/23 01:58:00;;;;;;;4.10;1.77;;;;;;;6.52;44.41;95667.34;5014346;28;20175;-61
2022/03/23 02:00:28;;;;;;;3.77;1.50;;;;;;;6.48;44.96;95656.59;5014117;28;20210;-60
2022/03/23 02:02:53;;;;;;;2.77;1.63;;;;;;;6.69;44.68;95669.78;5014366;28;20178;-64
2022/03/23 02:05:19;;;;;;;7.43;1.90;;;;;;;6.62;43.94;95668.47;4994639;28;20203;-61
2022/03/23 02:07:45;;;;;;;3.63;1.70;;;;;;;6.78;44.87;95677.69;5013141;28;20194;-64
2022/03/23 02:10:10;;;;;;;4.33;1.63;;;;;;;6.68;44.28;95671.50;5012999;28;20213;-61
2022/03/23 02:12:37;;;;;;;7.03;1.77;;;;;;;6.87;44.45;95668.00;4996605;28;20210;-64
2022/03/23 02:15:11;;;;;;;4.30;1.47;;;;;;;6.67;44.52;95672.38;4996864;28;20356;-64
2022/03/23 02:17:36;;;;;;;2.83;1.77;;;;;;;6.63;44.37;95673.44;5014112;28;20552;-64
2022/03/23 02:20:03;;;;;;;4.47;2.20;;;;;;;6.64;44.12;95679.31;5014367;28;20213;-59
2022/03/23 02:22:29;;;;;;;3.13;1.33;;;;;;;6.58;43.65;95687.22;5013593;28;20182;-63
2022/03/23 02:24:56;;;;;;;3.97;1.60;;;;;;;6.39;44.33;95669.69;5014620;28;20202;-63
2022/03/23 02:27:22;;;;;;;5.63;1.70;;;;;;;6.57;44.78;95673.78;5017807;28;20178;-63
2022/03/23 02:29:48;;;;;;;5.73;2.10;;;;;;;6.66;44.61;95677.53;5012623;28;20234;-64
2022/03/23 02:32:14;;;;;;;4.80;1.80;;;;;;;6.70;45.15;95677.28;4996120;28;20242;-60
2022/03/23 02:34:39;;;;;;;6.80;2.93;;;;;;;6.42;44.75;95672.03;5013757;28;20206;-61
2022/03/23 02:37:05;;;;;;;5.07;1.90;;;;;;;6.18;45.30;95675.03;5013683;28;20183;-63
2022/03/23 02:39:31;;;;;;;2.80;1.77;;;;;;;6.42;46.48;95666.97;5005215;23;20197;-59
2022/03/23 02:41:57;;;;;;;2.90;1.73;;;;;;;6.33;45.60;95654.03;5033343;28;20211;-64
2022/03/23 02:44:25;;;;;;;2.47;1.60;;;;;;;6.45;45.66;95674.41;5033317;28;20228;-62
2022/03/23 02:46:51;;;;;;;3.93;1.90;;;;;;;6.33;45.20;95659.91;5033188;28;20270;-61
2022/03/23 02:49:19;;;;;;;2.53;1.60;;;;;;;6.48;45.44;95675.97;5015228;28;20645;-60
2022/03/23 02:51:44;;;;;;;2.23;1.60;;;;;;;6.35;46.02;95678.31;5033483;28;20293;-60
2022/03/23 03:02:35;;;;;;;3.47;1.87;;;;;;;5.99;47.10;95675.16;5033007;28;20279;-64
2022/03/23 03:05:02;;;;;;;6.93;2.97;;;;;;;5.95;47.60;95663.56;5030883;28;20260;-66
2022/03/23 03:07:28;;;;;;;4.33;1.67;;;;;;;5.94;47.42;95662.75;5033026;28;20203;-63
2022/03/23 03:09:53;;;;;;;5.00;1.57;;;;;;;6.31;46.58;95674.31;5033084;28;20705;-63
2022/03/23 03:12:19;;;;;;;4.43;1.73;;;;;;;6.33;45.54;95676.75;5033009;28;20209;-64
2022/03/23 03:14:44;;;;;;;4.00;1.80;;;;;;;6.10;46.65;95677.94;5032872;28;20197;-64
2022/03/23 03:17:10;;;;;;;4.33;1.93;;;;;;;6.09;47.45;95671.25;5032852;28;20192;-64
2022/03/23 03:19:36;;;;;;;11.03;2.17;;;;;;;5.87;48.30;95663.16;5014837;28;20670;-63
2022/03/23 03:22:02;;;;;;;2.80;1.50;;;;;;;5.96;47.73;95670.25;5032535;28;20193;-64
2022/03/23 03:24:28;;;;;;;4.67;2.10;;;;;;;5.89;48.26;95667.22;4998490;28;20300;-59
2022/03/23 03:26:57;;;;;;;3.90;1.90;;;;;;;5.82;48.26;95657.47;5032611;28;20272;-61
2022/03/23 03:29:23;;;;;;;3.80;1.80;;;;;;;5.78;49.39;95656.00;5030934;28;20209;-64
2022/03/23 03:31:49;;;;;;;5.30;2.47;;;;;;;5.91;48.91;95659.56;5030347;28;20267;-60
2022/03/23 03:34:14;;;;;;;5.60;1.63;;;;;;;5.72;49.60;95654.59;5031254;28;20535;-61
2022/03/23 03:36:41;;;;;;;3.70;2.00;;;;;;;5.88;49.63;95650.44;5014723;28;20190;-61
2022/03/23 03:39:07;;;;;;;3.50;1.77;;;;;;;5.74;50.55;95641.91;5014663;28;20181;-64
2022/03/23 03:41:33;;;;;;;8.77;1.60;;;;;;;5.63;51.57;95631.56;5033095;28;20195;-64
2022/03/23 03:43:58;;;;;;;4.57;1.63;;;;;;;5.59;52.15;95630.06;5014616;28;20239;-63
2022/03/23 03:46:24;;;;;;;5.73;2.00;;;;;;;5.59;52.27;95622.50;5014751;28;20783;-59
2022/03/23 03:48:50;;;;;;;5.20;1.90;;;;;;;5.40;51.69;95586.47;4998246;28;20201;-63
2022/03/23 03:51:15;;;;;;;5.53;1.73;;;;;;;5.58;52.42;95615.81;5031917;28;20685;-60
2022/03/23 03:53:41;;;;;;;3.83;1.60;;;;;;;5.51;52.96;95627.94;5054434;23;20240;-63
2022/03/23 03:56:07;;;;;;;3.03;1.93;;;;;;;5.46;52.94;95618.94;5031559;28;20196;-59
2022/03/23 03:58:33;;;;;;;5.07;1.60;;;;;;;5.35;54.01;95608.59;5012463;28;20192;-61
2022/03/23 04:00:58;;;;;;;4.70;1.60;;;;;;;5.43;54.54;95614.06;5014103;28;20208;-61
2022/03/23 04:03:24;;;;;;;3.47;1.23;;;;;;;5.35;54.84;95626.22;5032403;28;20181;-63
2022/03/23 04:05:49;;;;;;;6.00;2.23;;;;;;;5.25;54.85;95622.53;5014176;28;20679;-63
2022/03/23 04:08:15;;;;;;;3.87;1.50;;;;;;;4.94;55.55;95585.38;5032273;28;20197;-63
2022/03/23 04:10:40;;;;;;;3.90;1.77;;;;;;;5.21;55.86;95619.34;5031918;28;20278;-65
2022/03/23 04:13:24;;;;;;;6.80;2.30;;;;;;;4.96;56.64;95608.81;5032271;28;20636;-64
2022/03/23 04:15:50;;;;;;;4.87;2.00;;;;;;;5.15;56.67;95603.69;5031755;28;20729;-61
2022/03/23 04:18:16;;;;;;;5.17;2.03;;;;;;;5.35;56.58;95616.16;5032316;28;20196;-60
2022/03/23 04:20:42;;;;;;;4.83;1.63;;;;;;;5.27;56.53;95615.72;5013859;28;20190;-63
2022/03/23 04:23:07;;;;;;;5.87;1.60;;;;;;;5.33;56.18;95620.44;5032121;28;20182;-63
2022/03/23 04:25:32;;;;;;;2.83;1.83;;;;;;;5.25;57.49;95612.44;5014248;28;20197;-61
2022/03/23 04:27:58;;;;;;;5.47;2.20;;;;;;;5.39;57.12;95617.63;5032045;28;20204;-63
2022/03/23 04:30:31;;;;;;;2.80;1.73;;;;;;;5.58;56.14;95628.44;5012089;28;20205;-64
2022/03/23 04:32:58;;;;;;;4.37;2.97;;;;;;;5.40;56.65;95616.72;5030771;28;20252;-60
2022/03/23 04:35:24;;;;;;;8.67;2.77;;;;;;;5.47;56.98;95626.47;5013853;28;20729;-61
2022/03/23 04:37:50;;;;;;;8.93;2.73;;;;;;;5.49;57.15;95618.81;5031523;28;20196;-63
2022/03/23 04:40:16;;;;;;;10.43;3.90;;;;;;;5.49;56.96;95624.69;5031810;28;20262;-62
2022/03/23 04:42:44;;;;;;;7.73;3.23;;;;;;;5.48;57.23;95622.19;5032044;28;20274;-64
2022/03/23 04:45:11;;;;;;;5.43;2.67;;;;;;;5.56;57.50;95620.13;5014073;28;20237;-61
2022/03/23 04:47:38;;;;;;;10.07;2.60;;;;;;;5.56;57.28;95632.72;5035981;28;20189;-59
2022/03/23 04:50:06;;;;;;;6.13;2.50;;;;;;;5.59;56.50;95630.88;5035478;28;20204;-63
2022/03/23 04:52:31;;;;;;;3.43;1.90;;;;;;;5.79;56.20;95643.31;5035869;28;20268;-60
2022/03/23 04:54:57;;;;;;;6.30;2.63;;;;;;;5.65;57.08;95625.53;5035151;28;20201;-59
2022/03/23 04:57:24;;;;;;;7.40;2.33;;;;;;;5.31;58.10;95602.88;5035485;28;20196;-63
2022/03/23 04:59:50;;;;;;;5.57;2.30;;;;;;;5.54;58.03;95624.44;5017804;28;20761;-59
2022/03/23 05:02:15;;;;;;;7.03;2.27;;;;;;;5.71;56.77;95631.97;5035564;28;20647;-63
2022/03/23 05:04:41;;;;;;;3.93;2.23;;;;;;;5.66;57.19;95624.63;5035309;28;20189;-61
2022/03/23 05:07:06;;;;;;;7.33;2.70;;;;;;;5.63;57.42;95622.28;5035517;28;20635;-63
2022/03/23 05:09:31;;;;;;;7.17;2.50;;;;;;;5.75;56.98;95633.47;5017380;28;20206;-63
2022/03/23 05:11:57;;;;;;;7.03;3.30;;;;;;;5.71;57.23;95629.47;5035179;28;20681;-60
2022/03/23 05:14:22;;;;;;;10.40;2.67;;;;;;;5.72;57.18;95631.91;5034974;28;20197;-64
2022/03/23 05:16:48;;;;;;;11.00;2.67;;;;;;;5.87;57.27;95641.25;5017616;28;20213;-62
2022/03/23 05:19:13;;;;;;;9.97;2.90;;;;;;;6.04;56.56;95644.63;5035143;28;20534;-64
2022/03/23 05:21:38;;;;;;;8.17;3.13;;;;;;;6.07;56.43;95637.72;5035294;28;20622;-62
2022/03/23 05:24:04;;;;;;;8.17;3.40;;;;;;;6.03;56.10;95651.38;5035356;28;20287;-60
2022/03/23 05:26:30;;;;;;;12.90;4.43;;;;;;;5.98;56.51;95648.25;5034775;28;20232;-60
2022/03/23 05:28:55;;;;;;;10.17;4.13;;;;;;;5.87;56.69;95638.75;5016096;28;20189;-61
2022/03/23 05:31:21;;;;;;;7.97;4.93;;;;;;;5.69;56.86;95644.69;5034994;28;20231;-64
2022/03/23 05:33:47;;;;;;;12.57;4.27;;;;;;;5.64;56.77;95633.16;5034906;28;20185;-60
2022/03/23 05:36:14;;;;;;;7.33;4.27;;;;;;;5.75;56.92;95648.59;5034956;28;20754;-60
2022/03/23 05:38:39;;;;;;;7.60;3.77;;;;;;;5.78;57.38;95645.91;5017228;28;20220;-65
2022/03/23 05:41:05;;;;;;;11.30;4.57;;;;;;;5.73;56.97;95650.38;5035131;28;20620;-65
2022/03/23 05:43:30;;;;;;;12.43;4.40;;;;;;;5.47;56.97;95640.75;5017257;28;20213;-63
2022/03/23 05:45:56;;;;;;;9.97;3.40;;;;;;;5.43;57.65;95639.28;5034748;28;20300;-63
2022/03/23 05:48:21;;;;;;;11.53;4.10;;;;;;;5.37;58.01;95637.88;5035058;28;20204;-67
2022/03/23 05:50:47;;;;;;;21.23;4.50;;;;;;;5.57;57.18;95642.75;5034525;28;20232;-62
2022/03/23 05:53:12;;;;;;;5.57;3.23;;;;;;;6.83;100.00;95631.94;5035029;28;20204;-61
2022/03/23 05:55:38;;;;;;;4.77;3.00;;;;;;;7.93;100.00;95673.72;5017213;28;20209;-67
2022/03/23 05:58:04;;;;;;;9.93;4.53;;;;;;;8.89;95.84;95699.19;5016588;28;20186;-66
2022/03/23 06:00:31;;;;;;;10.67;4.50;;;;;;;9.06;58.09;96016.03;5017279;28;20260;-66
2022/03/23 06:02:57;;;;;;;9.57;4.10;;;;;;;8.67;53.58;96003.88;5016633;28;20190;-67
2022/03/23 06:05:22;;;;;;;8.73;4.13;;;;;;;7.96;56.76;95880.34;5057610;23;20745;-63
2022/03/23 06:07:47;;;;;;;12.33;4.47;;;;;;;7.71;60.85;95825.19;5053515;28;20182;-68
2022/03/23 06:10:13;;;;;;;11.10;4.90;;;;;;;7.36;59.55;95834.66;5054958;28;20228;-66
2022/03/23 06:12:38;;;;;;;13.70;4.50;;;;;;;6.74;59.43;95852.28;5054812;28;20202;-62
2022/03/23 06:15:06;;;;;;;9.33;4.17;;;;;;;7.14;61.67;95810.59;5053155;28;20214;-67
2022/03/23 06:17:31;;;;;;;8.77;3.87;;;;;;;6.51;59.59;95850.06;5052951;28;20181;-67
2022/03/23 06:19:57;;;;;;;15.37;4.43;;;;;;;6.12;60.31;95816.69;5054767;28;20213;-67
2022/03/23 06:22:22;;;;;;;5.93;3.10;;;;;;;6.41;62.74;95768.91;5054134;28;20723;-62
2022/03/23 06:24:48;;;;;;;8.13;3.20;;;;;;;6.69;62.28;95801.16;5054520;28;20601;-65
2022/03/23 06:27:13;;;;;;;8.37;3.30;;;;;;;6.48;64.42;95759.31;5054390;28;20247;-67
2022/03/23 06:29:39;;;;;;;5.57;3.00;;;;;;;6.21;64.52;95753.13;5052964;28;20240;-60
2022/03/23 06:32:05;;;;;;;11.70;3.50;;;;;;;6.25;65.88;95726.81;5053654;28;20212;-62
2022/03/23 06:34:30;;;;;;;7.80;3.53;;;;;;;6.26;66.33;95729.25;5053763;28;20201;-62
2022/03/23 06:36:56;;;;;;;6.93;2.90;;;;;;;6.51;66.63;95729.66;5052724;28;20599;-65
2022/03/23 06:39:22;;;;;;;7.93;3.73;;;;;;;5.93;66.41;95730.97;5054052;28;20193;-61
2022/03/23 06:41:48;;;;;;;9.27;3.07;;;;;;;6.11;65.37;95735.09;5053588;28;20184;-61
2022/03/23 06:44:15;;;;;;;7.90;3.43;;;;;;;6.34;64.03;95766.78;5052161;28;20312;-61
2022/03/23 06:46:41;;;;;;;6.37;3.10;;;;;;;5.98;66.07;95739.13;5053449;28;20166;-60
2022/03/23 06:49:07;;;;;;;8.80;4.40;;;;;;;5.86;67.01;95732.97;5053698;28;20185;-61
2022/03/23 06:51:32;;;;;;;9.27;3.97;;;;;;;5.45;68.80;95693.78;5053271;28;20216;-61
2022/03/23 06:53:58;;;;;;;7.33;3.30;;;;;;;5.87;67.74;95723.69;5053425;28;20193;-61
2022/03/23 06:56:23;;;;;;;6.17;2.80;;;;;;;5.99;68.47;95734.88;5052031;28;20322;-67
2022/03/23 06:58:49;;;;;;;7.40;2.70;;;;;;;6.08;66.14;95772.31;5053344;28;20548;-67
2022/03/23 07:01:14;;;;;;;6.97;3.10;;;;;;;5.78;65.42;95770.34;5053040;28;20572;-66
2022/03/23 07:03:40;;;;;;;9.27;2.97;;;;;;;6.10;67.65;95728.41;5053095;28;20228;-66
2022/03/23 07:06:05;;;;;;;6.93;3.00;;;;;;;6.01;66.76;95756.63;5053134;28;20282;-66
2022/03/23 07:11:15;;;;;;;9.33;3.73;;;;;;;6.01;66.96;95755.81;5053371;28;20580;-61
2022/03/23 07:13:40;;;;;;;7.00;2.87;;;;;;;6.02;67.37;95754.94;5053083;28;20185;-61
2022/03/23 07:16:06;;;;;;;6.97;3.10;;;;;;;5.95;67.64;95729.19;5052760;28;20208;-60
2022/03/23 07:18:31;;;;;;;4.90;2.80;;;;;;;6.05;66.12;95760.66;5052798;28;20196;-60
2022/03/23 07:20:57;;;;;;;9.33;3.87;;;;;;;5.95;66.15;95777.13;5051876;28;20200;-60
2022/03/23 07:23:22;;;;;;;9.10;3.07;;;;;;;6.02;66.49;95755.72;5052006;28;20188;-65
2022/03/23 07:25:48;;;;;;;12.67;3.30;;;;;;;6.23;65.59;95790.03;5052820;28;20622;-61
2022/03/23 07:28:14;;;;;;;7.03;3.13;;;;;;;6.34;64.67;95794.56;5052639;28;20177;-64
2022/03/23 07:30:40;;;;;;;12.53;3.40;;;;;;;6.31;65.03;95793.00;5051384;28;20253;-60
2022/03/23 07:33:06;;;;;;;9.07;3.67;;;;;;;6.69;62.77;95831.47;5052601;28;20285;-64
2022/03/23 07:35:32;;;;;;;6.20;2.80;;;;;;;6.48;61.76;95846.03;5050799;28;20221;-64
2022/03/23 07:37:58;;;;;;;7.37;5.20;;;;;;;6.65;62.83;95823.22;5052404;28;20217;-64
2022/03/23 07:40:23;;;;;;;9.57;3.77;;;;;;;7.04;60.97;95867.59;5034460;28;20220;-62
2022/03/23 07:42:49;;;;;;;6.37;3.07;;;;;;;6.94;62.18;95838.63;5051059;28;20188;-66
2022/03/23 07:45:14;;;;;;;6.03;2.40;;;;;;;6.93;63.13;95817.56;5052706;28;20205;-66
2022/03/23 07:47:40;;;;;;;3.20;2.10;;;;;;;6.97;61.60;95841.81;5050891;28;20185;-65
2022/03/23 07:50:07;;;;;;;8.13;2.90;;;;;;;6.66;62.44;95813.97;5051390;28;20220;-61
2022/03/23 07:52:33;;;;;;;11.00;4.67;;;;;;;7.05;61.91;95831.31;5052119;28;20202;-62
2022/03/23 07:55:02;;;;;;;5.43;2.80;;;;;;;6.89;61.82;95828.75;5052558;28;20204;-60
2022/03/23 07:57:33;;;;;;;8.53;2.67;;;;;;;6.96;61.25;95826.72;5052464;28;20237;-64
2022/03/23 07:59:59;;;;;;;2.70;2.23;;;;;;;6.95;61.72;95797.31;5155986;23;20234;-63
2022/03/23 08:02:26;;;;;;;5.63;2.40;;;;;;;7.06;60.99;95836.28;5012555;28;20192;-63
2022/03/23 08:04:53;;;;;;;9.83;2.70;;;;;;;7.15;61.99;95819.81;5012875;28;20579;-63
2022/03/23 08:07:19;;;;;;;8.10;2.43;;;;;;;7.14;61.95;95830.81;5012125;28;20187;-60
2022/03/23 08:09:45;;;;;;;4.30;2.23;;;;;;;7.23;61.79;95821.03;5012555;28;20232;-60
2022/03/23 08:12:11;;;;;;;3.50;1.80;;;;;;;7.20;58.91;95878.53;5012202;28;20207;-64
2022/03/23 08:14:36;;;;;;;7.73;2.70;;;;;;;7.36;58.83;95876.84;5021930;23;20239;-60
2022/03/23 08:17:02;;;;;;;4.47;2.70;;;;;;;7.55;56.92;95911.22;5014115;28;20178;-60
2022/03/23 08:19:28;;;;;;;5.87;2.70;;;;;;;7.62;58.57;95856.03;5014066;28;20248;-62
2022/03/23 08:21:53;;;;;;;9.40;2.70;;;;;;;7.71;57.58;95893.50;5031549;28;20652;-60
2022/03/23 08:24:19;;;;;;;6.27;2.40;;;;;;;7.72;56.55;95895.13;5031556;28;20190;-59
2022/03/23 08:26:45;;;;;;;5.20;2.37;;;;;;;7.94;57.39;95890.53;5032114;28;20186;-60
2022/03/23 08:29:11;;;;;;;7.60;3.27;;;;;;;7.93;58.41;95870.38;5031564;28;20174;-64
2022/03/23 08:31:38;;;;;;;3.60;2.30;;;;;;;8.13;55.77;95920.75;5031816;28;20210;-64
2022/03/23 08:34:07;;;;;;;4.47;2.27;;;;;;;7.98;55.33;95924.91;5031833;28;20636;-63
2022/03/23 08:36:33;;;;;;;5.80;2.57;;;;;;;7.70;56.36;95896.94;5013866;28;20198;-60
2022/03/23 08:38:58;;;;;;;5.60;2.70;;;;;;;8.03;55.34;95910.31;5031511;28;20624;-61
2022/03/23 08:41:24;;;;;;;7.90;2.90;;;;;;;7.85;55.48;95934.09;5056345;23;20228;-65
2022/03/23 08:43:50;;;;;;;7.23;2.73;;;;;;;7.97;54.65;95937.66;5051811;28;20180;-65
2022/03/23 08:46:15;;;;;;;6.40;3.03;;;;;;;8.22;54.43;95935.47;5050573;28;20293;-61
2022/03/23 08:48:41;;;;;;;5.87;2.30;;;;;;;8.21;54.60;95908.47;5051804;28;20204;-64
2022/03/23 08:51:07;;;;;;;5.40;2.90;;;;;;;8.63;52.21;95986.38;5051322;28;20239;-60
2022/03/23 08:53:34;;;;;;;5.90;2.80;;;;;;;8.40;52.53;95919.25;5039745;23;20234;-65
2022/03/23 08:55:59;;;;;;;7.57;2.50;;;;;;;8.77;53.05;95941.63;5030312;28;20202;-60
2022/03/23 08:58:25;;;;;;;8.03;3.13;;;;;;;8.82;51.83;95965.00;5030524;28;20199;-63
2022/03/23 09:00:51;;;;;;;4.07;2.83;;;;;;;9.24;52.72;95957.47;5031784;28;20359;-60
2022/03/23 09:03:17;;;;;;;7.03;3.00;;;;;;;9.62;52.18;95952.63;5031449;28;20283;-60
2022/03/23 09:05:42;;;;;;;4.17;2.70;;;;;;;9.77;50.11;95987.28;5031572;28;20645;-60
2022/03/23 09:08:09;;;;;;;5.23;2.70;;;;;;;10.06;48.24;95960.06;5031555;28;20644;-60
2022/03/23 09:10:34;;;;;;;9.50;2.80;;;;;;;10.41;49.58;95919.78;5031600;28;20272;-67
2022/03/23 09:13:00;;;;;;;3.47;2.67;;;;;;;10.66;47.90;95958.00;5031295;28;20318;-61
2022/03/23 09:15:26;;;;;;;5.67;2.80;;;;;;;10.40;47.83;95944.41;5031458;28;20203;-61
2022/03/23 09:17:52;;;;;;;9.33;2.93;;;;;;;10.62;47.39;95943.84;5031224;28;20194;-60
2022/03/23 09:20:18;;;;;;;5.70;2.97;;;;;;;11.23;47.84;95931.28;5030960;28;20201;-61
2022/03/23 09:22:44;;;;;;;8.73;3.30;;;;;;;11.50;45.79;95951.53;5031495;28;20198;-60
2022/03/23 09:25:12;;;;;;;4.83;3.27;;;;;;;11.48;44.25;95973.75;5031238;28;20660;-60
2022/03/23 09:27:42;;;;;;;9.13;2.63;;;;;;;11.68;44.13;95930.75;5030093;28;20186;-61
2022/03/23 09:30:10;;;;;;;4.87;2.40;;;;;;;11.23;45.08;95885.47;5031427;28;20281;-60
2022/03/23 09:32:36;;;;;;;8.20;2.80;;;;;;;11.31;44.55;95898.47;5032316;28;20319;-60
2022/03/23 09:35:02;;;;;;;7.83;3.17;;;;;;;11.61;44.55;95886.22;5050449;28;20206;-64
2022/03/23 09:40:13;;;;;;;5.97;2.87;;;;;;;12.39;43.36;95894.28;5034778;28;20209;-60
2022/03/23 09:42:40;;;;;;;4.60;2.57;;;;;;;12.79;43.05;95893.03;5035206;28;20640;-66
2022/03/23 09:45:20;;;;;;;8.90;3.20;;;;;;;12.69;42.28;95886.97;5034747;28;20202;-66
2022/03/23 09:47:46;;;;;;;5.40;2.83;;;;;;;12.84;41.07;95916.47;5033324;28;20248;-66
2022/03/23 09:50:11;;;;;;;3.47;2.10;;;;;;;12.53;41.76;95866.06;5034809;28;20202;-67
2022/03/23 09:52:38;;;;;;;5.40;3.40;;;;;;;12.15;42.22;95855.25;5034253;28;20218;-65
2022/03/23 09:55:04;;;;;;;6.90;3.17;;;;;;;12.77;42.32;95858.34;5034357;28;20202;-65
2022/03/23 09:57:30;;;;;;;3.90;2.57;;;;;;;13.17;39.95;95896.13;5034907;28;20194;-66
2022/03/23 09:59:55;;;;;;;8.60;2.70;;;;;;;12.96;40.23;95859.41;5033099;28;20719;-60
2022/03/23 10:02:56;;;;;;;9.93;2.47;;;;;;;13.14;40.38;95860.63;5034586;28;20182;-60
2022/03/23 10:05:27;;;;;;;10.00;3.20;;;;;;;13.16;39.42;95876.66;5005952;28;20592;-64
2022/03/23 10:08:27;;;;;;;6.20;3.17;;;;;;;12.97;40.23;95850.81;5034142;28;20668;-60
2022/03/23 10:11:47;;;;;;;13.60;2.63;;;;;;;12.95;39.78;95839.91;5034212;28;20190;-64
2022/03/23 10:15:00;;;;;;;7.23;2.70;;;;;;;13.47;39.92;95836.81;5034174;28;20194;-61
2022/03/23 10:17:47;;;;;;;9.10;3.00;;;;;;;13.90;38.88;95841.94;4980377;28;20780;-60
2022/03/23 10:20:14;;;;;;;5.97;3.20;;;;;;;13.31;38.48;95828.72;5034170;28;20252;-59
2022/03/23 10:22:47;;;;;;;7.67;3.10;;;;;;;13.90;38.71;95829.16;5034149;28;20198;-60
2022/03/23 10:25:14;;;;;;;8.40;2.85;;;;;;;14.44;37.79;95837.59;5034004;28;20186;-61
2022/03/23 10:27:40;;;;;;;6.97;2.58;;;;;;;14.36;36.09;95844.25;5034395;28;20197;-62
2022/03/23 10:30:06;;;;;;;8.47;3.13;;;;;;;14.17;36.05;95837.19;5040979;23;20226;-59
2022/03/23 10:32:42;;;;;;;6.30;3.25;;;;;;;14.02;35.82;95802.59;5033701;28;20218;-59
2022/03/23 10:35:16;;;;;;;5.90;2.57;;;;;;;14.47;35.40;95826.25;5033903;28;20577;-59
2022/03/23 10:37:43;;;;;;;7.53;2.60;;;;;;;14.55;35.08;95811.09;5033594;28;20244;-59
2022/03/23 10:40:17;;;;;;;7.07;2.97;;;;;;;14.25;34.81;95796.47;5015669;28;20648;-60
2022/03/23 10:42:44;;;;;;;3.73;2.43;;;;;;;14.30;35.72;95768.81;5033434;28;20190;-65
2022/03/23 10:45:12;;;;;;;7.20;2.80;;;;;;;13.54;35.73;95768.16;5015297;28;20205;-63
2022/03/23 10:47:39;;;;;;;6.27;3.37;;;;;;;14.13;36.02;95759.09;5033643;28;20198;-63
2022/03/23 10:50:19;;;;;;;5.90;2.80;;;;;;;14.14;35.83;95764.06;5033359;28;20198;-64
2022/03/23 10:52:56;;;;;;;5.97;2.60;;;;;;;14.49;34.80;95763.78;5033595;28;20217;-60
2022/03/23 10:55:24;;;;;;;7.27;2.70;;;;;;;14.52;34.55;95749.94;5033349;28;20202;-62
2022/03/23 10:57:49;;;;;;;6.18;2.75;;;;;;;14.14;34.78;95756.41;5015921;28;20671;-61
2022/03/23 11:00:17;;;;;;;5.18;2.20;;;;;;;14.47;34.08;95745.19;5033437;28;20218;-61
2022/03/23 11:02:47;;;;;;;7.57;2.33;;;;;;;14.89;34.12;95736.50;5033404;28;20272;-60
2022/03/23 11:05:31;;;;;;;6.28;2.75;;;;;;;14.70;32.41;95739.00;5033085;28;20264;-65
2022/03/23 11:08:12;;;;;;;5.78;2.58;;;;;;;14.40;31.58;95739.00;5033422;28;20270;-65
2022/03/23 11:16:36;;;;;;;8.35;2.40;;;;;;;14.36;33.45;95699.25;5032603;28;20206;-61
2022/03/23 11:19:23;;;;;;;7.30;2.43;;;;;;;14.80;33.09;95701.44;5032963;28;20186;-64
2022/03/23 11:21:59;;;;;;;3.92;2.28;;;;;;;15.36;31.76;95716.25;5032168;28;20193;-65
2022/03/23 11:24:40;;;;;;;10.55;2.85;;;;;;;15.24;31.41;95704.50;5014843;28;20201;-60
2022/03/23 11:27:09;;;;;;;5.28;2.70;;;;;;;15.39;31.62;95713.44;5032378;28;20174;-60
2022/03/23 11:29:35;;;;;;;8.35;3.08;;;;;;;15.85;32.53;95700.81;5032634;28;20206;-61
2022/03/23 11:32:08;;;;;;;4.60;2.38;;;;;;;16.06;31.10;95698.88;5032163;28;20719;-60
2022/03/23 11:34:36;;;;;;;6.07;3.08;;;;;;;16.02;30.84;95689.84;5032320;28;20351;-60
2022/03/23 11:37:04;;;;;;;6.20;2.75;;;;;;;16.31;31.39;95688.03;5017509;23;20230;-59
2022/03/23 11:39:30;;;;;;;6.80;2.88;;;;;;;16.53;31.65;95682.59;5011022;28;20585;-58
2022/03/23 11:41:58;;;;;;;6.50;2.95;;;;;;;16.66;31.08;95683.06;5012671;28;20282;-61
2022/03/23 11:44:25;;;;;;;6.75;2.60;;;;;;;16.72;30.76;95679.16;5012314;28;20286;-60
2022/03/23 11:46:56;;;;;;;5.45;2.30;;;;;;;16.83;30.21;95678.16;5012363;28;20566;-63
2022/03/23 11:49:46;;;;;;;4.57;2.60;;;;;;;17.09;28.88;95689.38;5012354;28;20210;-63
2022/03/23 11:52:26;;;;;;;5.47;2.85;;;;;;;17.07;28.78;95676.66;5012620;28;20203;-60
2022/03/23 11:58:15;;;;;;;6.32;2.97;;;;;;;17.37;28.33;95690.97;5012565;28;20648;-66
2022/03/23 12:00:50;;;;;;;7.47;2.67;;;;;;;17.43;28.44;95633.81;5012599;28;20229;-65
2022/03/23 12:03:41;;;;;;;7.40;2.67;;;;;;;16.98;28.59;95653.59;5012550;28;20177;-64